sensor_id;sensor_type;location;lat;lon;timestamp;P1;durP1;ratioP1;P2;durP2;ratioP2
32365;SDS011;18837;46.832;16.838;2023-12-20T00:04:28;37.83;;;27.60;;
32365;SDS011;18837;46.832;16.838;2023-12-20T00:13:33;40.17;;;29.07;;
32365;SDS011;18837;46.832;16.838;2023-12-20T00:16:05;36.50;;;27.73;;
32365;SDS011;18837;46.832;16.838;2023-12-20T00:18:34;41.93;;;28.87;;
32365;SDS011;18837;46.832;16.838;2023-12-20T00:21:04;42.17;;;27.73;;
32365;SDS011;18837;46.832;16.838;2023-12-20T00:23:30;41.13;;;29.27;;
32365;SDS011;18837;46.832;16.838;2023-12-20T00:25:59;38.33;;;28.60;;
32365;SDS011;18837;46.832;16.838;2023-12-20T00:28:26;38.97;;;27.77;;
32365;SDS011;18837;46.832;16.838;2023-12-20T00:31:05;38.87;;;27.73;;
32365;SDS011;18837;46.832;16.838;2023-12-20T00:34:43;35.87;;;26.87;;
32365;SDS011;18837;46.832;16.838;2023-12-20T00:44:55;35.63;;;25.50;;
32365;SDS011;18837;46.832;16.838;2023-12-20T00:48:26;36.13;;;25.90;;
32365;SDS011;18837;46.832;16.838;2023-12-20T00:51:12;33.77;;;25.97;;
32365;SDS011;18837;46.832;16.838;2023-12-20T01:01:48;33.33;;;24.60;;
32365;SDS011;18837;46.832;16.838;2023-12-20T01:05:10;32.77;;;23.63;;
32365;SDS011;18837;46.832;16.838;2023-12-20T01:49:48;28.57;;;21.20;;
32365;SDS011;18837;46.832;16.838;2023-12-20T03:26:43;30.57;;;21.00;;
32365;SDS011;18837;46.832;16.838;2023-12-20T03:29:15;29.43;;;19.77;;
32365;SDS011;18837;46.832;16.838;2023-12-20T05:41:57;31.03;;;20.43;;
32365;SDS011;18837;46.832;16.838;2023-12-20T05:47:35;30.40;;;21.07;;
32365;SDS011;18837;46.832;16.838;2023-12-20T05:50:02;34.03;;;21.20;;
32365;SDS011;18837;46.832;16.838;2023-12-20T05:52:32;31.77;;;22.10;;
32365;SDS011;18837;46.832;16.838;2023-12-20T05:58:05;32.00;;;20.37;;
32365;SDS011;18837;46.832;16.838;2023-12-20T06:00:34;31.53;;;21.30;;
32365;SDS011;18837;46.832;16.838;2023-12-20T06:03:04;34.70;;;22.40;;
32365;SDS011;18837;46.832;16.838;2023-12-20T07:54:46;34.50;;;22.13;;
32365;SDS011;18837;46.832;16.838;2023-12-20T08:01:44;33.60;;;21.97;;
32365;SDS011;18837;46.832;16.838;2023-12-20T08:04:20;35.67;;;22.90;;
32365;SDS011;18837;46.832;16.838;2023-12-20T08:06:56;36.23;;;21.77;;
32365;SDS011;18837;46.832;16.838;2023-12-20T08:09:34;35.17;;;22.73;;
32365;SDS011;18837;46.832;16.838;2023-12-20T08:12:09;36.13;;;22.30;;
32365;SDS011;18837;46.832;16.838;2023-12-20T08:14:58;31.33;;;21.27;;
32365;SDS011;18837;46.832;16.838;2023-12-20T08:17:24;35.43;;;22.23;;
32365;SDS011;18837;46.832;16.838;2023-12-20T10:12:25;46.57;;;26.97;;
32365;SDS011;18837;46.832;16.838;2023-12-20T10:26:03;45.63;;;26.27;;
32365;SDS011;18837;46.832;16.838;2023-12-20T10:53:31;50.23;;;28.47;;
32365;SDS011;18837;46.832;16.838;2023-12-20T10:59:57;50.10;;;28.37;;
32365;SDS011;18837;46.832;16.838;2023-12-20T11:03:10;49.10;;;29.80;;
32365;SDS011;18837;46.832;16.838;2023-12-20T11:13:38;48.07;;;28.53;;
32365;SDS011;18837;46.832;16.838;2023-12-20T11:30:49;49.80;;;28.33;;
32365;SDS011;18837;46.832;16.838;2023-12-20T11:47:44;49.70;;;28.43;;
32365;SDS011;18837;46.832;16.838;2023-12-20T12:18:38;47.87;;;28.00;;
32365;SDS011;18837;46.832;16.838;2023-12-20T12:28:17;53.43;;;29.90;;
32365;SDS011;18837;46.832;16.838;2023-12-20T12:59:14;56.10;;;30.57;;
32365;SDS011;18837;46.832;16.838;2023-12-20T13:22:49;55.17;;;30.10;;
32365;SDS011;18837;46.832;16.838;2023-12-20T13:46:26;57.87;;;30.63;;
32365;SDS011;18837;46.832;16.838;2023-12-20T13:52:56;55.80;;;30.77;;
32365;SDS011;18837;46.832;16.838;2023-12-20T14:30:42;58.23;;;31.03;;
32365;SDS011;18837;46.832;16.838;2023-12-20T15:12:05;57.63;;;31.57;;
32365;SDS011;18837;46.832;16.838;2023-12-20T15:36:42;56.60;;;32.77;;
32365;SDS011;18837;46.832;16.838;2023-12-20T17:04:41;61.07;;;38.20;;
32365;SDS011;18837;46.832;16.838;2023-12-20T18:47:09;55.00;;;34.67;;
32365;SDS011;18837;46.832;16.838;2023-12-20T18:49:34;57.70;;;36.30;;
32365;SDS011;18837;46.832;16.838;2023-12-20T18:52:00;59.30;;;37.10;;
32365;SDS011;18837;46.832;16.838;2023-12-20T18:54:29;60.73;;;36.80;;
32365;SDS011;18837;46.832;16.838;2023-12-20T18:56:55;65.07;;;39.57;;
32365;SDS011;18837;46.832;16.838;2023-12-20T18:59:27;65.33;;;38.77;;
32365;SDS011;18837;46.832;16.838;2023-12-20T19:05:37;62.97;;;39.50;;
32365;SDS011;18837;46.832;16.838;2023-12-20T19:08:03;62.60;;;38.43;;
32365;SDS011;18837;46.832;16.838;2023-12-20T19:10:29;63.00;;;38.40;;
32365;SDS011;18837;46.832;16.838;2023-12-20T19:12:55;63.07;;;38.57;;
32365;SDS011;18837;46.832;16.838;2023-12-20T19:15:21;65.43;;;40.30;;
32365;SDS011;18837;46.832;16.838;2023-12-20T19:17:46;63.63;;;39.73;;
32365;SDS011;18837;46.832;16.838;2023-12-20T19:22:48;63.70;;;38.90;;
32365;SDS011;18837;46.832;16.838;2023-12-20T19:25:14;64.17;;;41.40;;
32365;SDS011;18837;46.832;16.838;2023-12-20T19:27:40;62.47;;;39.43;;
32365;SDS011;18837;46.832;16.838;2023-12-20T19:30:08;64.77;;;40.53;;
32365;SDS011;18837;46.832;16.838;2023-12-20T19:32:35;65.53;;;40.47;;
32365;SDS011;18837;46.832;16.838;2023-12-20T19:35:06;66.90;;;40.77;;
32365;SDS011;18837;46.832;16.838;2023-12-20T19:37:34;65.43;;;40.23;;
32365;SDS011;18837;46.832;16.838;2023-12-20T19:40:00;66.50;;;42.60;;
32365;SDS011;18837;46.832;16.838;2023-12-20T19:42:32;66.90;;;42.87;;
32365;SDS011;18837;46.832;16.838;2023-12-20T19:45:01;75.47;;;43.47;;
32365;SDS011;18837;46.832;16.838;2023-12-20T19:47:28;71.03;;;41.50;;
32365;SDS011;18837;46.832;16.838;2023-12-20T19:53:11;70.77;;;41.77;;
32365;SDS011;18837;46.832;16.838;2023-12-20T19:55:37;64.93;;;41.37;;
32365;SDS011;18837;46.832;16.838;2023-12-20T19:58:03;68.97;;;42.33;;
32365;SDS011;18837;46.832;16.838;2023-12-20T20:00:29;69.43;;;42.17;;
32365;SDS011;18837;46.832;16.838;2023-12-20T20:02:55;64.50;;;40.50;;
32365;SDS011;18837;46.832;16.838;2023-12-20T20:05:21;66.20;;;42.67;;
32365;SDS011;18837;46.832;16.838;2023-12-20T20:08:05;68.17;;;42.53;;
32365;SDS011;18837;46.832;16.838;2023-12-20T20:10:31;68.30;;;43.10;;
32365;SDS011;18837;46.832;16.838;2023-12-20T20:12:57;67.27;;;41.47;;
32365;SDS011;18837;46.832;16.838;2023-12-20T20:15:23;63.63;;;42.80;;
32365;SDS011;18837;46.832;16.838;2023-12-20T20:17:49;68.37;;;43.27;;
32365;SDS011;18837;46.832;16.838;2023-12-20T20:20:14;66.63;;;42.77;;
32365;SDS011;18837;46.832;16.838;2023-12-20T20:22:40;64.20;;;41.73;;
32365;SDS011;18837;46.832;16.838;2023-12-20T20:28:09;62.93;;;42.23;;
32365;SDS011;18837;46.832;16.838;2023-12-20T20:30:36;67.00;;;41.70;;
32365;SDS011;18837;46.832;16.838;2023-12-20T20:33:01;64.80;;;43.37;;
32365;SDS011;18837;46.832;16.838;2023-12-20T20:35:29;64.60;;;41.80;;
32365;SDS011;18837;46.832;16.838;2023-12-20T20:37:55;65.17;;;43.00;;
32365;SDS011;18837;46.832;16.838;2023-12-20T20:40:20;66.80;;;41.73;;
32365;SDS011;18837;46.832;16.838;2023-12-20T20:43:12;63.40;;;41.97;;
32365;SDS011;18837;46.832;16.838;2023-12-20T20:45:38;60.77;;;40.27;;
32365;SDS011;18837;46.832;16.838;2023-12-20T20:48:03;63.60;;;41.50;;
32365;SDS011;18837;46.832;16.838;2023-12-20T20:50:39;68.10;;;42.67;;
32365;SDS011;18837;46.832;16.838;2023-12-20T20:55:47;64.67;;;43.17;;
32365;SDS011;18837;46.832;16.838;2023-12-20T21:06:17;68.90;;;41.90;;
32365;SDS011;18837;46.832;16.838;2023-12-20T21:08:44;63.63;;;41.67;;
32365;SDS011;18837;46.832;16.838;2023-12-20T21:11:10;63.97;;;40.90;;
32365;SDS011;18837;46.832;16.838;2023-12-20T21:13:35;67.23;;;41.83;;
32365;SDS011;18837;46.832;16.838;2023-12-20T21:16:03;62.23;;;41.30;;
32365;SDS011;18837;46.832;16.838;2023-12-20T21:18:29;62.63;;;41.50;;
32365;SDS011;18837;46.832;16.838;2023-12-20T21:20:55;67.03;;;43.47;;
32365;SDS011;18837;46.832;16.838;2023-12-20T21:23:21;67.80;;;43.60;;
32365;SDS011;18837;46.832;16.838;2023-12-20T21:25:51;62.97;;;40.27;;
32365;SDS011;18837;46.832;16.838;2023-12-20T21:28:16;62.10;;;42.00;;
32365;SDS011;18837;46.832;16.838;2023-12-20T21:30:43;60.23;;;40.90;;
32365;SDS011;18837;46.832;16.838;2023-12-20T21:33:12;63.37;;;41.10;;
32365;SDS011;18837;46.832;16.838;2023-12-20T21:35:45;62.33;;;41.67;;
32365;SDS011;18837;46.832;16.838;2023-12-20T21:38:10;63.50;;;41.10;;
32365;SDS011;18837;46.832;16.838;2023-12-20T21:40:36;61.67;;;41.23;;
32365;SDS011;18837;46.832;16.838;2023-12-20T21:43:05;63.77;;;42.67;;
32365;SDS011;18837;46.832;16.838;2023-12-20T21:45:34;60.90;;;40.50;;
32365;SDS011;18837;46.832;16.838;2023-12-20T21:48:15;61.50;;;41.50;;
32365;SDS011;18837;46.832;16.838;2023-12-20T21:50:44;63.47;;;41.43;;
32365;SDS011;18837;46.832;16.838;2023-12-20T21:53:10;61.37;;;41.67;;
32365;SDS011;18837;46.832;16.838;2023-12-20T21:55:39;61.83;;;41.33;;
32365;SDS011;18837;46.832;16.838;2023-12-20T21:58:05;61.10;;;40.63;;
32365;SDS011;18837;46.832;16.838;2023-12-20T22:00:33;57.40;;;40.57;;
32365;SDS011;18837;46.832;16.838;2023-12-20T22:03:08;56.17;;;38.33;;
32365;SDS011;18837;46.832;16.838;2023-12-20T22:10:45;60.43;;;38.60;;
32365;SDS011;18837;46.832;16.838;2023-12-20T22:13:10;63.50;;;40.57;;
32365;SDS011;18837;46.832;16.838;2023-12-20T22:15:38;60.30;;;39.43;;
32365;SDS011;18837;46.832;16.838;2023-12-20T22:20:29;58.87;;;39.00;;
32365;SDS011;18837;46.832;16.838;2023-12-20T22:25:31;59.67;;;40.13;;
32365;SDS011;18837;46.832;16.838;2023-12-20T22:27:57;59.57;;;39.83;;
32365;SDS011;18837;46.832;16.838;2023-12-20T22:30:25;62.30;;;40.53;;
32365;SDS011;18837;46.832;16.838;2023-12-20T22:32:50;64.30;;;42.77;;
32365;SDS011;18837;46.832;16.838;2023-12-20T22:35:16;63.20;;;41.00;;
32365;SDS011;18837;46.832;16.838;2023-12-20T22:37:42;59.23;;;39.90;;
32365;SDS011;18837;46.832;16.838;2023-12-20T22:40:11;61.10;;;40.50;;
32365;SDS011;18837;46.832;16.838;2023-12-20T22:42:38;55.20;;;38.87;;
32365;SDS011;18837;46.832;16.838;2023-12-20T22:50:15;61.10;;;40.00;;
32365;SDS011;18837;46.832;16.838;2023-12-20T22:52:41;60.53;;;41.00;;
32365;SDS011;18837;46.832;16.838;2023-12-20T22:55:07;56.57;;;38.53;;
32365;SDS011;18837;46.832;16.838;2023-12-20T22:57:33;62.13;;;41.57;;
32365;SDS011;18837;46.832;16.838;2023-12-20T23:02:35;63.17;;;41.33;;
32365;SDS011;18837;46.832;16.838;2023-12-20T23:05:02;55.93;;;39.17;;
32365;SDS011;18837;46.832;16.838;2023-12-20T23:07:28;54.33;;;37.93;;
32365;SDS011;18837;46.832;16.838;2023-12-20T23:09:53;57.03;;;39.10;;
32365;SDS011;18837;46.832;16.838;2023-12-20T23:12:20;59.67;;;39.13;;
32365;SDS011;18837;46.832;16.838;2023-12-20T23:14:47;57.53;;;39.47;;
32365;SDS011;18837;46.832;16.838;2023-12-20T23:17:13;56.77;;;38.83;;
32365;SDS011;18837;46.832;16.838;2023-12-20T23:19:38;57.80;;;40.57;;
32365;SDS011;18837;46.832;16.838;2023-12-20T23:22:05;54.20;;;37.90;;
32365;SDS011;18837;46.832;16.838;2023-12-20T23:24:42;59.73;;;39.30;;
32365;SDS011;18837;46.832;16.838;2023-12-20T23:27:08;58.27;;;39.50;;
32365;SDS011;18837;46.832;16.838;2023-12-20T23:29:34;58.27;;;38.83;;
32365;SDS011;18837;46.832;16.838;2023-12-20T23:32:00;55.23;;;39.53;;
32365;SDS011;18837;46.832;16.838;2023-12-20T23:34:26;52.43;;;37.60;;
32365;SDS011;18837;46.832;16.838;2023-12-20T23:36:51;55.80;;;38.97;;
32365;SDS011;18837;46.832;16.838;2023-12-20T23:39:24;55.20;;;38.20;;
32365;SDS011;18837;46.832;16.838;2023-12-20T23:41:49;55.27;;;38.60;;
32365;SDS011;18837;46.832;16.838;2023-12-20T23:44:15;56.20;;;38.07;;
32365;SDS011;18837;46.832;16.838;2023-12-20T23:46:41;56.83;;;38.73;;
32365;SDS011;18837;46.832;16.838;2023-12-20T23:49:06;52.23;;;37.23;;
32365;SDS011;18837;46.832;16.838;2023-12-20T23:51:32;54.30;;;36.60;;
32365;SDS011;18837;46.832;16.838;2023-12-20T23:54:14;52.93;;;36.90;;
32365;SDS011;18837;46.832;16.838;2023-12-20T23:56:58;51.80;;;36.50;;
32365;SDS011;18837;46.832;16.838;2023-12-20T23:59:33;53.87;;;37.27;;
